createdAt,value
2018-08-28T00:01:13.041Z,77.70
2018-08-28T00:03:41.975Z,77.10
2018-08-28T00:06:10.748Z,77.80
2018-08-28T00:08:39.510Z,77.70
2018-08-28T00:11:08.399Z,77.30
2018-08-28T00:13:37.167Z,76.60
2018-08-28T00:16:06.095Z,76.60
2018-08-28T00:18:34.922Z,77.20
2018-08-28T00:21:03.732Z,76.30
2018-08-28T00:23:32.486Z,76.30
2018-08-28T00:26:02.167Z,76.70
2018-08-28T00:28:30.922Z,76.30
2018-08-28T00:30:59.677Z,76.80
2018-08-28T00:33:28.480Z,76.30
2018-08-28T00:35:57.289Z,76.60
2018-08-28T00:38:26.104Z,76.90
2018-08-28T00:40:54.916Z,77.20
2018-08-28T00:43:23.693Z,76.80
2018-08-28T00:45:52.509Z,76.40
2018-08-28T00:48:21.373Z,77.10
2018-08-28T00:50:50.164Z,76.50
2018-08-28T00:53:19.004Z,76.40
2018-08-28T00:55:47.793Z,76.70
2018-08-28T00:58:16.603Z,76.40
2018-08-28T01:00:45.423Z,76.30
2018-08-28T01:03:14.282Z,76.00
2018-08-28T01:05:43.070Z,75.30
2018-08-28T01:08:11.832Z,75.10
2018-08-28T01:10:40.620Z,74.70
2018-08-28T01:13:09.496Z,74.20
2018-08-28T01:15:38.474Z,74.70
2018-08-28T01:18:07.614Z,74.50
2018-08-28T01:20:36.420Z,74.60
2018-08-28T01:23:05.233Z,74.50
2018-08-28T01:25:34.032Z,74.70
2018-08-28T01:28:02.908Z,74.70
2018-08-28T01:30:35.149Z,74.80
2018-08-28T01:33:05.703Z,74.90
2018-08-28T01:35:34.808Z,75.00
2018-08-28T01:38:03.663Z,75.70
2018-08-28T01:40:32.518Z,75.70
2018-08-28T01:43:01.693Z,75.70
2018-08-28T01:45:30.505Z,76.10
2018-08-28T01:47:59.357Z,76.50
2018-08-28T01:50:28.225Z,76.50
2018-08-28T01:52:57.455Z,76.50
2018-08-28T01:55:26.627Z,76.90
2018-08-28T01:57:55.494Z,76.40
2018-08-28T02:00:24.268Z,76.50
2018-08-28T02:02:53.149Z,76.50
2018-08-28T02:05:21.919Z,76.50
2018-08-28T02:07:50.724Z,77.20
2018-08-28T02:10:19.501Z,76.80
2018-08-28T02:12:48.288Z,77.10
2018-08-28T02:15:17.474Z,77.40
2018-08-28T02:17:46.240Z,77.30
2018-08-28T02:20:14.992Z,77.20
2018-08-28T02:22:43.880Z,76.80
2018-08-28T02:25:12.653Z,76.90
2018-08-28T02:27:41.481Z,76.50
2018-08-28T02:30:10.568Z,77.20
2018-08-28T02:32:39.362Z,76.60
2018-08-28T02:35:08.212Z,76.20
2018-08-28T02:37:37.045Z,75.70
2018-08-28T02:40:05.941Z,75.70
2018-08-28T02:42:34.745Z,76.60
2018-08-28T02:45:03.589Z,76.80
2018-08-28T02:47:32.443Z,77.10
2018-08-28T02:50:01.277Z,77.10
2018-08-28T02:52:30.039Z,77.00
2018-08-28T02:54:58.833Z,77.00
2018-08-28T02:57:27.581Z,77.20
2018-08-28T02:59:56.373Z,77.70
2018-08-28T03:02:25.245Z,77.80
2018-08-28T03:04:54.083Z,77.80
2018-08-28T03:07:29.448Z,78.20
2018-08-28T03:09:58.284Z,77.90
2018-08-28T03:12:27.075Z,78.20
2018-08-28T03:14:55.844Z,78.20
2018-08-28T03:17:24.653Z,78.10
2018-08-28T03:19:53.536Z,78.80
2018-08-28T03:22:22.338Z,79.40
2018-08-28T03:24:51.129Z,79.60
2018-08-28T03:27:19.913Z,79.70
2018-08-28T03:29:48.705Z,79.90
2018-08-28T03:32:17.914Z,79.90
2018-08-28T03:34:46.946Z,80.20
2018-08-28T03:37:15.740Z,79.50
2018-08-28T03:39:44.608Z,79.90
2018-08-28T03:42:13.410Z,79.90
2018-08-28T03:44:42.261Z,80.20
2018-08-28T03:47:11.040Z,80.20
2018-08-28T03:49:40.863Z,80.50
2018-08-28T03:52:09.620Z,80.10
2018-08-28T03:54:38.542Z,80.20
2018-08-28T03:57:07.437Z,80.20
2018-08-28T03:59:36.242Z,80.50
2018-08-28T04:02:05.113Z,81.00
2018-08-28T04:04:33.939Z,80.70
2018-08-28T04:07:02.741Z,80.20
2018-08-28T04:09:32.413Z,80.50
2018-08-28T04:12:01.250Z,80.30
2018-08-28T04:14:30.025Z,80.20
2018-08-28T04:16:59.333Z,80.60
2018-08-28T04:19:28.118Z,80.70
2018-08-28T04:21:56.938Z,80.80
2018-08-28T04:24:25.745Z,80.60
2018-08-28T04:26:54.533Z,80.90
2018-08-28T04:29:23.358Z,80.90
2018-08-28T04:31:52.132Z,81.10
2018-08-28T04:34:22.812Z,80.60
2018-08-28T04:36:51.652Z,80.40
2018-08-28T04:39:20.461Z,80.30
2018-08-28T04:41:49.297Z,80.30
2018-08-28T04:44:18.510Z,80.30
2018-08-28T04:46:47.285Z,80.50
2018-08-28T04:49:16.074Z,81.00
2018-08-28T04:51:44.919Z,80.90
2018-08-28T04:54:13.858Z,80.40
2018-08-28T04:56:42.597Z,80.40
2018-08-28T04:59:11.545Z,80.50
2018-08-28T05:01:40.341Z,80.70
2018-08-28T05:04:09.288Z,80.70
2018-08-28T05:06:38.081Z,80.90
2018-08-28T05:09:07.436Z,80.90
2018-08-28T05:11:36.285Z,81.10
2018-08-28T05:14:05.106Z,81.10
2018-08-28T05:16:33.922Z,80.70
2018-08-28T05:19:02.708Z,80.80
2018-08-28T05:21:31.635Z,80.80
2018-08-28T05:24:00.419Z,81.00
2018-08-28T05:26:29.202Z,80.50
2018-08-28T05:28:57.989Z,80.50
2018-08-28T05:31:26.761Z,80.60
2018-08-28T05:33:55.559Z,80.50
2018-08-28T05:36:24.390Z,80.60
2018-08-28T05:38:53.179Z,80.60
2018-08-28T05:41:21.943Z,80.50
2018-08-28T05:43:50.718Z,80.70
2018-08-28T05:46:19.968Z,80.60
2018-08-28T05:48:48.742Z,81.00
2018-08-28T05:51:17.571Z,80.60
2018-08-28T05:53:46.350Z,80.90
2018-08-28T05:56:15.221Z,80.90
2018-08-28T05:58:44.063Z,81.20
2018-08-28T06:01:14.130Z,80.90
2018-08-28T06:03:42.921Z,80.70
2018-08-28T06:06:11.905Z,81.30
2018-08-28T06:08:40.701Z,80.90
2018-08-28T06:11:09.565Z,81.00
2018-08-28T06:13:38.444Z,80.70
2018-08-28T06:16:07.252Z,79.90
2018-08-28T06:18:36.112Z,79.60
2018-08-28T06:21:04.965Z,79.60
2018-08-28T06:23:33.852Z,79.50
2018-08-28T06:26:02.663Z,80.20
2018-08-28T06:28:31.522Z,79.70
2018-08-28T06:31:00.382Z,79.80
2018-08-28T06:33:29.163Z,80.00
2018-08-28T06:35:58.120Z,80.20
2018-08-28T06:38:26.942Z,80.60
2018-08-28T06:40:55.743Z,80.10
2018-08-28T06:43:24.543Z,79.60
2018-08-28T06:45:53.315Z,79.00
2018-08-28T06:48:22.483Z,78.80
2018-08-28T06:50:51.373Z,79.50
2018-08-28T06:53:20.125Z,79.30
2018-08-28T06:55:48.973Z,78.60
2018-08-28T06:58:17.760Z,78.70
2018-08-28T07:00:46.590Z,78.40
2018-08-28T07:03:15.374Z,78.10
2018-08-28T07:05:44.240Z,77.70
2018-08-28T07:08:13.111Z,77.70
2018-08-28T07:10:41.902Z,77.20
2018-08-28T07:13:10.699Z,76.90
2018-08-28T07:15:39.523Z,76.00
2018-08-28T07:18:08.338Z,77.00
2018-08-28T07:20:37.144Z,76.60
2018-08-28T07:23:05.993Z,76.50
2018-08-28T07:25:34.777Z,75.60
2018-08-28T07:28:13.609Z,74.90
2018-08-28T07:30:42.414Z,75.20
2018-08-28T07:33:11.218Z,74.60
2018-08-28T07:35:40.033Z,74.40
2018-08-28T07:38:08.820Z,73.50
2018-08-28T07:40:37.665Z,74.10
2018-08-28T07:43:06.468Z,73.40
2018-08-28T07:45:35.228Z,72.40
2018-08-28T07:48:04.165Z,72.70
2018-08-28T07:50:32.979Z,72.30
2018-08-28T07:53:01.778Z,72.00
2018-08-28T07:55:30.596Z,72.10
2018-08-28T07:57:59.413Z,69.60
2018-08-28T08:00:31.426Z,70.30
2018-08-28T08:03:00.385Z,71.00
2018-08-28T08:05:30.155Z,71.00
2018-08-28T08:07:59.651Z,71.00
2018-08-28T08:10:28.478Z,71.20
2018-08-28T08:12:57.273Z,71.80
2018-08-28T08:15:26.074Z,72.60
2018-08-28T08:17:54.897Z,72.50
2018-08-28T08:20:23.782Z,72.10
2018-08-28T08:22:52.546Z,71.70
2018-08-28T08:25:21.396Z,71.60
2018-08-28T08:27:50.266Z,70.60
2018-08-28T08:30:19.173Z,69.50
2018-08-28T08:32:47.941Z,69.10
2018-08-28T08:35:16.872Z,68.20
2018-08-28T08:37:47.139Z,68.30
2018-08-28T08:40:16.111Z,68.10
2018-08-28T08:42:48.176Z,67.50
2018-08-28T08:45:17.013Z,66.10
2018-08-28T08:47:45.875Z,67.10
2018-08-28T08:50:19.144Z,65.20
2018-08-28T08:52:47.941Z,66.20
2018-08-28T08:55:16.763Z,66.70
2018-08-28T08:57:45.588Z,66.00
2018-08-28T09:00:14.444Z,65.20
2018-08-28T09:02:43.560Z,66.00
2018-08-28T09:05:12.577Z,65.90
2018-08-28T09:07:41.348Z,65.80
2018-08-28T09:10:10.295Z,64.90
2018-08-28T09:12:39.065Z,66.30
2018-08-28T09:15:07.893Z,66.20
2018-08-28T09:17:36.742Z,67.10
2018-08-28T09:20:05.624Z,67.60
2018-08-28T09:22:34.454Z,67.70
2018-08-28T09:25:03.289Z,67.80
2018-08-28T09:27:32.140Z,68.20
2018-08-28T09:30:00.899Z,67.80
2018-08-28T09:32:29.657Z,68.30
2018-08-28T09:34:58.503Z,66.90
2018-08-28T09:37:27.301Z,68.50
2018-08-28T09:39:56.131Z,69.00
2018-08-28T09:42:24.925Z,67.70
2018-08-28T09:44:53.760Z,67.80
2018-08-28T09:47:22.583Z,68.00
2018-08-28T09:49:51.405Z,67.00
2018-08-28T09:52:20.235Z,68.50
2018-08-28T09:54:49.345Z,67.70
2018-08-28T09:57:18.204Z,69.60
2018-08-28T09:59:46.968Z,68.50
2018-08-28T10:02:15.896Z,67.90
2018-08-28T10:04:44.678Z,67.20
2018-08-28T10:07:13.993Z,66.00
2018-08-28T10:09:42.794Z,65.50
2018-08-28T10:12:11.682Z,66.10
2018-08-28T10:14:40.492Z,66.00
2018-08-28T10:17:09.285Z,65.70
2018-08-28T10:19:38.142Z,67.80
2018-08-28T10:22:07.084Z,68.10
2018-08-28T10:24:35.896Z,67.30
2018-08-28T10:27:04.741Z,67.00
2018-08-28T10:29:33.532Z,65.20
2018-08-28T10:32:02.347Z,65.00
2018-08-28T10:34:31.148Z,64.50
2018-08-28T10:36:59.907Z,62.60
2018-08-28T10:39:28.704Z,62.80
2018-08-28T10:41:57.530Z,60.70
2018-08-28T10:44:26.294Z,61.60
2018-08-28T10:46:55.285Z,61.60
2018-08-28T10:49:23.977Z,58.90
2018-08-28T10:51:52.822Z,59.50
2018-08-28T10:54:21.653Z,61.40
2018-08-28T10:56:50.511Z,61.10
2018-08-28T10:59:19.324Z,59.30
2018-08-28T11:01:48.153Z,59.20
2018-08-28T11:04:16.937Z,58.70
2018-08-28T11:06:45.724Z,59.00
2018-08-28T11:09:14.573Z,58.70
2018-08-28T11:11:43.652Z,57.20
2018-08-28T11:14:12.569Z,58.50
2018-08-28T11:16:41.373Z,57.10
2018-08-28T11:19:10.158Z,58.30
2018-08-28T11:21:39.040Z,57.20
2018-08-28T11:24:13.433Z,59.20
2018-08-28T11:26:42.301Z,58.20
2018-08-28T11:29:11.656Z,54.90
2018-08-28T11:31:40.469Z,57.50
2018-08-28T11:34:16.337Z,59.50
2018-08-28T11:36:45.142Z,59.20
2018-08-28T11:39:13.908Z,59.50
2018-08-28T11:41:42.720Z,59.20
2018-08-28T11:44:11.481Z,60.50
2018-08-28T11:46:40.261Z,60.30
2018-08-28T11:49:09.081Z,57.70
2018-08-28T11:51:37.849Z,57.70
2018-08-28T11:54:07.445Z,57.40
2018-08-28T11:56:36.303Z,56.90
2018-08-28T11:59:05.133Z,56.60
2018-08-28T12:01:33.947Z,56.20
2018-08-28T12:04:02.871Z,56.90
2018-08-28T12:06:32.027Z,55.40
2018-08-28T12:09:00.769Z,55.30
2018-08-28T12:11:29.553Z,55.70
2018-08-28T12:13:58.394Z,54.00
2018-08-28T12:16:27.225Z,54.20
2018-08-28T12:18:56.008Z,56.00
2018-08-28T12:21:24.797Z,55.20
2018-08-28T12:24:26.436Z,55.80
2018-08-28T12:26:56.509Z,56.00
2018-08-28T12:29:31.906Z,57.10
2018-08-28T12:32:00.904Z,54.20
2018-08-28T12:34:30.661Z,55.30
2018-08-28T12:36:59.504Z,54.80
2018-08-28T12:39:28.384Z,55.30
2018-08-28T12:41:57.184Z,53.30
2018-08-28T12:44:25.964Z,53.20
2018-08-28T12:46:55.065Z,52.80
2018-08-28T12:49:23.820Z,54.80
2018-08-28T12:51:52.612Z,56.30
2018-08-28T12:54:21.440Z,54.70
2018-08-28T12:56:50.182Z,54.30
2018-08-28T12:59:19.004Z,53.80
2018-08-28T13:01:47.749Z,54.10
2018-08-28T13:04:16.579Z,54.60
2018-08-28T13:06:45.847Z,53.40
2018-08-28T13:09:14.709Z,52.90
2018-08-28T13:11:43.515Z,53.80
2018-08-28T13:14:12.346Z,52.30
2018-08-28T13:16:41.200Z,52.80
2018-08-28T13:19:09.991Z,53.40
2018-08-28T13:21:38.772Z,53.60
2018-08-28T13:24:07.597Z,54.90
2018-08-28T13:26:36.342Z,55.10
2018-08-28T13:29:05.589Z,55.30
2018-08-28T13:31:34.373Z,55.40
2018-08-28T13:34:03.161Z,55.40
2018-08-28T13:36:32.010Z,55.20
2018-08-28T13:39:00.857Z,54.40
2018-08-28T13:41:29.858Z,55.00
2018-08-28T13:43:58.630Z,56.00
2018-08-28T13:46:27.394Z,54.30
2018-08-28T13:48:56.245Z,54.40
2018-08-28T13:51:25.154Z,53.60
2018-08-28T13:53:54.125Z,54.80
2018-08-28T13:56:22.830Z,55.10
2018-08-28T13:58:51.593Z,56.10
2018-08-28T14:01:20.388Z,55.00
2018-08-28T14:03:49.167Z,56.10
2018-08-28T14:06:18.407Z,56.20
2018-08-28T14:08:47.222Z,55.90
2018-08-28T14:11:15.999Z,53.80
2018-08-28T14:13:44.893Z,55.10
2018-08-28T14:16:13.740Z,57.00
2018-08-28T14:18:42.556Z,54.90
2018-08-28T14:21:11.391Z,54.40
2018-08-28T14:23:40.217Z,55.10
2018-08-28T14:26:09.071Z,53.70
2018-08-28T14:28:37.846Z,54.80
2018-08-28T14:31:06.743Z,53.40
2018-08-28T14:33:35.638Z,51.70
2018-08-28T14:36:04.492Z,51.90
2018-08-28T14:38:33.335Z,52.60
2018-08-28T14:41:02.337Z,51.90
2018-08-28T14:43:31.179Z,51.40
2018-08-28T14:46:00.049Z,53.50
2018-08-28T14:48:28.861Z,53.80
2018-08-28T14:50:58.042Z,52.80
2018-08-28T14:53:26.860Z,50.60
2018-08-28T14:55:55.673Z,51.70
2018-08-28T14:58:24.493Z,51.20
2018-08-28T15:00:53.321Z,51.40
2018-08-28T15:03:22.137Z,52.00
2018-08-28T15:05:50.922Z,52.50
2018-08-28T15:08:19.781Z,53.40
2018-08-28T15:10:48.597Z,52.80
2018-08-28T15:13:17.471Z,53.10
2018-08-28T15:15:46.313Z,53.00
2018-08-28T15:18:15.099Z,52.80
2018-08-28T15:20:43.916Z,54.10
2018-08-28T15:23:12.749Z,53.40
2018-08-28T15:25:41.512Z,53.20
2018-08-28T15:28:10.398Z,53.70
2018-08-28T15:30:39.228Z,54.30
2018-08-28T15:33:08.088Z,53.30
2018-08-28T15:35:41.449Z,53.50
2018-08-28T15:38:10.265Z,53.10
2018-08-28T15:40:39.050Z,52.90
2018-08-28T15:43:07.915Z,52.50
2018-08-28T15:45:36.769Z,53.00
2018-08-28T15:48:05.685Z,55.00
2018-08-28T15:50:34.493Z,53.40
2018-08-28T15:53:03.407Z,52.80
2018-08-28T15:55:33.286Z,52.70
2018-08-28T15:58:02.758Z,53.10
2018-08-28T16:00:31.610Z,53.00
2018-08-28T16:03:00.441Z,54.10
2018-08-28T16:05:29.911Z,53.70
2018-08-28T16:07:58.690Z,53.20
2018-08-28T16:10:27.507Z,53.50
2018-08-28T16:12:56.393Z,54.00
2018-08-28T16:15:25.216Z,53.30
2018-08-28T16:17:54.126Z,55.00
2018-08-28T16:20:22.945Z,55.00
2018-08-28T16:22:55.180Z,54.80
2018-08-28T16:25:24.037Z,55.00
2018-08-28T16:27:52.941Z,54.60
2018-08-28T16:30:22.188Z,55.60
2018-08-28T16:32:51.026Z,55.60
2018-08-28T16:35:19.800Z,54.80
2018-08-28T16:37:50.898Z,54.80
2018-08-28T16:40:23.145Z,54.60
2018-08-28T16:43:28.627Z,55.30
2018-08-28T16:46:02.768Z,55.00
2018-08-28T16:48:32.127Z,54.80
2018-08-28T16:51:01.290Z,55.60
2018-08-28T16:53:30.488Z,55.60
2018-08-28T16:55:59.646Z,56.20
2018-08-28T16:58:28.681Z,56.60
2018-08-28T17:00:58.313Z,55.90
2018-08-28T17:03:27.676Z,56.60
2018-08-28T17:05:56.437Z,57.10
2018-08-28T17:08:25.229Z,57.70
2018-08-28T17:10:54.341Z,57.10
2018-08-28T17:13:23.120Z,57.80
2018-08-28T17:15:51.909Z,57.90
2018-08-28T17:18:20.768Z,58.80
2018-08-28T17:20:49.542Z,59.20
2018-08-28T17:23:18.412Z,59.20
2018-08-28T17:25:47.196Z,59.40
2018-08-28T17:28:16.013Z,59.80
2018-08-28T17:30:44.892Z,60.70
2018-08-28T17:33:13.721Z,60.10
2018-08-28T17:35:42.545Z,61.20
2018-08-28T17:38:11.834Z,61.00
2018-08-28T17:40:40.672Z,61.10
2018-08-28T17:43:09.457Z,61.40
2018-08-28T17:45:38.262Z,61.70
2018-08-28T17:48:07.395Z,62.20
2018-08-28T17:50:36.183Z,62.40
2018-08-28T17:53:06.323Z,62.20
2018-08-28T17:55:35.116Z,62.80
2018-08-28T17:58:06.376Z,63.00
2018-08-28T18:00:37.052Z,64.00
2018-08-28T18:03:11.728Z,64.10
2018-08-28T18:05:46.350Z,64.70
2018-08-28T18:08:15.133Z,65.20
2018-08-28T18:10:44.728Z,65.30
2018-08-28T18:13:14.160Z,66.50
2018-08-28T18:15:44.454Z,66.00
2018-08-28T18:18:13.257Z,66.50
2018-08-28T18:20:42.204Z,67.00
2018-08-28T18:23:12.413Z,66.40
2018-08-28T18:25:44.907Z,66.40
2018-08-28T18:28:13.973Z,66.50
2018-08-28T18:30:43.228Z,66.20
2018-08-28T18:33:12.769Z,67.50
2018-08-28T18:35:41.982Z,68.20
2018-08-28T18:38:10.987Z,68.40
2018-08-28T18:40:39.766Z,68.70
2018-08-28T18:43:08.564Z,70.00
2018-08-28T18:45:37.398Z,70.80
2018-08-28T18:48:06.388Z,71.60
2018-08-28T18:50:35.348Z,72.10
2018-08-28T18:53:04.308Z,73.80
2018-08-28T18:55:33.255Z,74.00
2018-08-28T18:58:02.086Z,74.40
2018-08-28T19:00:31.019Z,74.50
2018-08-28T19:02:59.975Z,75.00
2018-08-28T19:05:29.171Z,74.70
2018-08-28T19:08:00.624Z,74.70
2018-08-28T19:10:30.028Z,74.90
2018-08-28T19:13:01.686Z,75.20
2018-08-28T19:15:32.561Z,75.30
2018-08-28T19:18:01.988Z,75.00
2018-08-28T19:20:31.327Z,75.40
2018-08-28T19:23:01.650Z,75.80
2018-08-28T19:25:30.945Z,76.60
2018-08-28T19:28:00.295Z,76.10
2018-08-28T19:30:29.619Z,75.90
2018-08-28T19:32:59.047Z,76.30
2018-08-28T19:35:28.163Z,76.00
2018-08-28T19:37:57.252Z,76.40
2018-08-28T19:40:26.097Z,76.90
2018-08-28T19:42:54.901Z,76.20
2018-08-28T19:45:23.985Z,76.30
2018-08-28T19:47:52.913Z,76.20
2018-08-28T19:50:21.800Z,76.40
2018-08-28T19:52:51.085Z,76.60
2018-08-28T19:55:21.475Z,76.50
2018-08-28T19:57:50.853Z,76.50
2018-08-28T20:00:21.106Z,76.50
2018-08-28T20:02:51.712Z,76.50
2018-08-28T20:05:20.479Z,76.50
2018-08-28T20:07:49.307Z,76.40
2018-08-28T20:10:18.147Z,76.40
2018-08-28T20:12:46.986Z,76.30
2018-08-28T20:15:15.977Z,76.60
2018-08-28T20:17:44.907Z,76.50
2018-08-28T20:20:13.722Z,76.50
2018-08-28T20:22:42.593Z,76.50
2018-08-28T20:25:11.534Z,76.50
2018-08-28T20:27:42.076Z,76.60
2018-08-28T20:30:12.168Z,76.70
2018-08-28T20:32:41.076Z,77.10
2018-08-28T20:35:09.921Z,77.10
2018-08-28T20:37:38.682Z,77.00
2018-08-28T20:40:07.537Z,77.20
2018-08-28T20:42:36.440Z,77.30
2018-08-28T20:45:05.566Z,77.30
2018-08-28T20:47:35.335Z,77.50
2018-08-28T20:50:04.218Z,78.00
2018-08-28T20:52:33.021Z,77.60
2018-08-28T20:55:01.887Z,77.40
2018-08-28T20:57:30.695Z,77.80
2018-08-28T20:59:59.453Z,78.20
2018-08-28T21:02:28.260Z,78.30
2018-08-28T21:04:57.117Z,78.90
2018-08-28T21:07:25.983Z,78.70
2018-08-28T21:09:54.790Z,79.00
2018-08-28T21:12:23.577Z,79.40
2018-08-28T21:14:52.387Z,79.30
2018-08-28T21:17:21.189Z,79.30
2018-08-28T21:19:49.996Z,79.00
2018-08-28T21:22:18.788Z,79.30
2018-08-28T21:24:47.601Z,79.20
2018-08-28T21:27:16.393Z,79.30
2018-08-28T21:29:45.221Z,79.50
2018-08-28T21:32:14.037Z,80.70
2018-08-28T21:34:42.841Z,80.50
2018-08-28T21:37:11.611Z,80.60
2018-08-28T21:39:40.444Z,80.60
2018-08-28T21:42:09.282Z,80.20
2018-08-28T21:44:38.090Z,80.30
2018-08-28T21:47:06.986Z,80.00
2018-08-28T21:49:35.784Z,80.00
2018-08-28T21:52:04.535Z,79.80
2018-08-28T21:54:33.349Z,79.70
2018-08-28T21:57:02.145Z,79.50
2018-08-28T21:59:37.212Z,79.90
2018-08-28T22:02:06.022Z,79.70
2018-08-28T22:04:34.769Z,79.80
2018-08-28T22:07:08.975Z,80.00
2018-08-28T22:09:37.828Z,79.80
2018-08-28T22:12:06.747Z,79.70
2018-08-28T22:14:35.594Z,79.60
2018-08-28T22:17:11.041Z,79.80
2018-08-28T22:19:39.870Z,79.50
2018-08-28T22:22:08.715Z,79.70
2018-08-28T22:24:37.605Z,79.60
2018-08-28T22:27:06.482Z,80.20
2018-08-28T22:29:35.301Z,80.00
2018-08-28T22:32:04.111Z,79.90
2018-08-28T22:34:32.913Z,79.60
2018-08-28T22:37:01.796Z,79.60
2018-08-28T22:39:30.570Z,79.90
2018-08-28T22:41:59.379Z,79.60
2018-08-28T22:44:28.387Z,79.40
2018-08-28T22:46:57.264Z,79.60
2018-08-28T22:49:26.103Z,79.50
2018-08-28T22:51:54.933Z,79.30
2018-08-28T22:54:30.811Z,79.20
2018-08-28T22:57:06.521Z,79.30
2018-08-28T22:59:35.675Z,79.30
2018-08-28T23:02:04.544Z,78.90
2018-08-28T23:04:33.309Z,79.20
2018-08-28T23:07:02.483Z,79.10
2018-08-28T23:09:31.281Z,79.30
2018-08-28T23:12:00.097Z,79.10
2018-08-28T23:14:28.957Z,79.10
2018-08-28T23:16:57.770Z,79.50
2018-08-28T23:19:26.545Z,79.60
2018-08-28T23:21:55.358Z,79.30
2018-08-28T23:24:24.180Z,80.20
2018-08-28T23:26:52.967Z,79.60
2018-08-28T23:29:21.768Z,80.20
2018-08-28T23:31:50.594Z,79.50
2018-08-28T23:34:19.358Z,79.80
2018-08-28T23:36:48.172Z,79.60
2018-08-28T23:39:17.084Z,79.50
2018-08-28T23:41:45.872Z,79.50
2018-08-28T23:44:14.699Z,80.00
2018-08-28T23:46:43.493Z,79.90
2018-08-28T23:49:12.245Z,79.90
2018-08-28T23:51:41.164Z,79.90
2018-08-28T23:54:09.954Z,79.80
2018-08-28T23:56:38.789Z,80.40
2018-08-28T23:59:07.674Z,80.40
